Impacts METAR Board
IDs:

KAST - Astoria Rgnl, OR, US

Updated at: 0200 UTC 29 Nov 2020
Potential Impact None Slight Moderate High
Time 28/14Z 28/15Z 28/16Z 28/17Z 28/18Z 28/19Z 28/20Z 28/21Z 28/22Z 28/23Z 29/00Z 29/01Z 29/02Z
Temp42 40 40 43 43 44 45 47 48 47 46 44 43
Dewpt41 38 39 41 42 42 42 43 43 42 42 40 40
Altim30.28 30.30 30.32 30.34 30.37 30.37 30.35 30.35 30.35 30.34 30.34 30.33 30.33
VIS5 1.75 6 10 10 10 10 10 10 10 10 10 10
CIG4 -- -- -- 5 6 -- -- -- -- 10 -- 11
CoverBKNSCTSCTFEWOVCOVCFEWCLRFEWCLRBKNFEWBKN
FltCatLIFRIFRVFRVFRIFRIFRVFRVFRVFRVFRMVFRVFRMVFR
WXBRBRBR--------------------
WDir0011060605080508080708080
WSpd0 0 3 6 4 7 5 9 6 8 5 11 9
WGst-- -- -- -- -- -- -- -- -- -- -- -- --
Raw hourly METARs
KAST 281404Z AUTO 00000KT 5SM BR BKN004 BKN016 06/05 A3028 RMK AO2 VIS 1 3/4 RWY 08 T00560050
KAST 281503Z AUTO 00000KT 1 3/4SM BR FEW005 SCT009 04/03 A3030 RMK AO2 VIS 1/2 RWY 08 T00440033
KAST 281555Z AUTO 11003KT 6SM BR SCT005 04/04 A3032 RMK AO2 SLP266 T00440039
KAST 281655Z AUTO 06006KT 10SM FEW006 06/05 A3034 RMK AO2 SLP274 T00610050
KAST 281755Z AUTO 06004KT 10SM OVC005 06/06 A3037 RMK AO2 SLP282 T00610056 10067 20039 53018
KAST 281855Z AUTO 05007KT 10SM OVC006 07/06 A3037 RMK AO2 SLP284 T00670056
KAST 282004Z AUTO 08005KT 10SM FEW006 07/06 A3035 RMK AO2 T00720056
KAST 282055Z AUTO 05009KT 10SM CLR 08/06 A3035 RMK AO2 SLP276 T00830061 58006
KAST 282155Z AUTO 08006KT 10SM FEW011 09/06 A3035 RMK AO2 SLP277 T00890061
KAST 282255Z AUTO 08008KT 10SM CLR 08/06 A3034 RMK AO2 SLP275 T00830056
KAST 282355Z AUTO 07005KT 10SM BKN010 08/06 A3034 RMK AO2 SLP273 T00780056 10094 20061 56004
KAST 290055Z AUTO 08011KT 10SM FEW010 07/04 A3033 RMK AO2 SLP271 T00670044
KAST 290202Z AUTO 08009KT 10SM BKN011 06/04 A3033 RMK AO2 T00610044



Page loaded:  02:31 UTC  |   06:31 PM Pacific  |   07:31 PM Mountain  |   08:31 PM Central  |   09:31 PM Eastern

 

ADVISORIES

FORECASTS

FORECASTS

OBSERVATIONS

USER TOOLS

ABOUT US